createdAt,value
2023-03-27T00:00:57.765Z,64.10
2023-03-27T00:04:01.135Z,64.60
2023-03-27T00:07:04.764Z,64.50
2023-03-27T00:10:09.257Z,64.30
2023-03-27T00:13:12.388Z,64.30
2023-03-27T00:16:17.063Z,64.40
2023-03-27T00:19:20.353Z,64.30
2023-03-27T00:22:23.349Z,64.40
2023-03-27T00:25:27.849Z,64.30
2023-03-27T00:28:31.145Z,64.70
2023-03-27T00:31:36.082Z,64.70
2023-03-27T00:34:39.141Z,65.00
2023-03-27T00:37:43.032Z,65.40
2023-03-27T00:40:47.898Z,65.40
2023-03-27T00:43:54.685Z,65.80
2023-03-27T00:46:59.304Z,66.10
2023-03-27T00:50:07.094Z,66.00
2023-03-27T00:53:13.940Z,65.90
2023-03-27T00:56:17.933Z,65.90
2023-03-27T00:59:24.568Z,66.00
2023-03-27T01:02:29.577Z,66.00
2023-03-27T01:05:34.417Z,65.70
2023-03-27T01:08:38.499Z,66.00
2023-03-27T01:11:52.943Z,66.10
2023-03-27T01:15:10.665Z,66.10
2023-03-27T01:18:30.489Z,66.20
2023-03-27T01:22:05.498Z,66.60
2023-03-27T01:25:39.882Z,66.60
2023-03-27T01:28:51.811Z,66.80
2023-03-27T01:32:19.642Z,67.00
2023-03-27T01:36:04.207Z,67.20
2023-03-27T01:39:37.026Z,67.40
2023-03-27T01:42:46.753Z,67.60
2023-03-27T01:45:55.997Z,67.30
2023-03-27T01:49:04.288Z,67.50
2023-03-27T01:52:13.050Z,67.50
2023-03-27T01:55:24.143Z,67.40
2023-03-27T01:58:36.332Z,67.30
2023-03-27T02:01:43.045Z,67.20
2023-03-27T02:04:53.514Z,67.30
2023-03-27T02:08:01.393Z,67.30
2023-03-27T02:11:08.549Z,67.40
2023-03-27T02:14:15.760Z,67.70
2023-03-27T02:17:20.531Z,67.70
2023-03-27T02:20:26.286Z,67.20
2023-03-27T02:23:32.007Z,67.10
2023-03-27T02:26:47.221Z,67.10
2023-03-27T02:30:03.592Z,66.80
2023-03-27T02:33:17.385Z,66.80
2023-03-27T02:36:31.453Z,66.80
2023-03-27T02:39:42.472Z,67.00
2023-03-27T02:42:58.092Z,67.30
2023-03-27T02:46:09.853Z,67.20
2023-03-27T02:49:17.454Z,67.20
2023-03-27T02:52:24.711Z,67.30
2023-03-27T02:55:33.215Z,67.10
2023-03-27T02:58:45.192Z,67.30
2023-03-27T03:01:48.644Z,67.10
2023-03-27T03:04:57.187Z,66.70
2023-03-27T03:08:00.370Z,66.50
2023-03-27T03:11:04.608Z,65.30
2023-03-27T03:14:09.349Z,65.70
2023-03-27T03:17:13.311Z,65.00
2023-03-27T03:20:17.091Z,64.20
2023-03-27T03:23:20.084Z,64.00
2023-03-27T03:26:23.126Z,64.50
2023-03-27T03:29:30.087Z,64.50
2023-03-27T03:32:34.638Z,64.60
2023-03-27T03:35:37.815Z,64.70
2023-03-27T03:38:41.232Z,65.00
2023-03-27T03:41:44.731Z,65.10
2023-03-27T03:44:51.985Z,65.30
2023-03-27T03:47:57.928Z,65.60
2023-03-27T03:51:01.081Z,65.90
2023-03-27T03:54:05.451Z,65.80
2023-03-27T03:57:08.974Z,66.00
2023-03-27T04:00:16.969Z,66.00
2023-03-27T04:03:20.688Z,66.30
2023-03-27T04:06:25.440Z,66.20
2023-03-27T04:09:28.650Z,66.20
2023-03-27T04:12:31.994Z,66.00
2023-03-27T04:15:36.568Z,66.20
2023-03-27T04:18:41.331Z,66.50
2023-03-27T04:21:45.827Z,66.40
2023-03-27T04:24:50.648Z,66.60
2023-03-27T04:27:57.017Z,67.00
2023-03-27T04:31:01.393Z,67.50
2023-03-27T04:34:04.488Z,67.50
2023-03-27T04:37:07.904Z,67.60
2023-03-27T04:40:14.091Z,67.60
2023-03-27T04:43:17.428Z,67.70
2023-03-27T04:46:26.031Z,67.70
2023-03-27T04:49:38.529Z,67.70
2023-03-27T04:52:42.164Z,67.70
2023-03-27T04:55:45.817Z,67.30
2023-03-27T04:58:49.047Z,67.30
2023-03-27T05:01:53.361Z,67.00
2023-03-27T05:05:02.347Z,67.40
2023-03-27T05:08:05.846Z,67.20
2023-03-27T05:11:08.892Z,67.20
2023-03-27T05:14:12.248Z,67.10
2023-03-27T05:17:18.940Z,67.10
2023-03-27T05:20:22.643Z,67.30
2023-03-27T05:23:25.771Z,67.10
2023-03-27T05:26:30.350Z,66.80
2023-03-27T05:29:46.763Z,66.90
2023-03-27T05:32:53.823Z,66.80
2023-03-27T05:35:58.964Z,67.00
2023-03-27T05:39:02.306Z,67.50
2023-03-27T05:42:05.675Z,67.30
2023-03-27T05:45:09.571Z,67.30
2023-03-27T05:48:16.650Z,67.30
2023-03-27T05:51:25.818Z,67.20
2023-03-27T05:54:29.299Z,67.40
2023-03-27T05:57:33.023Z,67.40
2023-03-27T06:00:36.279Z,67.50
2023-03-27T06:03:41.207Z,67.50
2023-03-27T06:06:45.594Z,67.30
2023-03-27T06:09:53.181Z,67.00
2023-03-27T06:13:04.577Z,66.90
2023-03-27T06:16:11.179Z,67.00
2023-03-27T06:19:16.842Z,66.80
2023-03-27T06:22:20.054Z,66.40
2023-03-27T06:25:25.042Z,66.20
2023-03-27T06:28:28.552Z,66.00
2023-03-27T06:31:31.548Z,65.20
2023-03-27T06:34:35.935Z,64.90
2023-03-27T06:37:39.937Z,64.50
2023-03-27T06:40:43.102Z,64.10
2023-03-27T06:43:46.351Z,63.90
2023-03-27T06:46:49.376Z,63.90
2023-03-27T06:49:54.091Z,63.60
2023-03-27T06:53:01.577Z,63.70
2023-03-27T06:56:06.123Z,62.60
2023-03-27T06:59:09.502Z,62.40
2023-03-27T07:02:13.702Z,62.20
2023-03-27T07:05:18.384Z,62.40
2023-03-27T07:08:24.815Z,61.90
2023-03-27T07:11:30.592Z,62.30
2023-03-27T07:14:34.837Z,62.60
2023-03-27T07:17:48.040Z,62.80
2023-03-27T07:20:53.296Z,63.20
2023-03-27T07:23:56.528Z,63.30
2023-03-27T07:26:59.533Z,63.30
2023-03-27T07:30:02.553Z,62.30
2023-03-27T07:33:09.414Z,62.10
2023-03-27T07:36:16.408Z,61.70
2023-03-27T07:39:19.494Z,62.00
2023-03-27T07:42:22.576Z,61.60
2023-03-27T07:45:25.773Z,61.50
2023-03-27T07:48:30.055Z,60.90
2023-03-27T07:51:34.536Z,60.50
2023-03-27T07:54:37.489Z,61.00
2023-03-27T07:57:57.992Z,61.30
2023-03-27T08:01:04.662Z,61.20
2023-03-27T08:04:09.386Z,61.00
2023-03-27T08:07:13.840Z,60.20
2023-03-27T08:10:17.167Z,59.90
2023-03-27T08:13:20.540Z,59.80
2023-03-27T08:16:27.683Z,58.60
2023-03-27T08:19:33.540Z,58.50
2023-03-27T08:22:39.495Z,57.30
2023-03-27T08:25:42.817Z,56.70
2023-03-27T08:28:46.043Z,56.80
2023-03-27T08:31:49.075Z,56.60
2023-03-27T08:34:52.113Z,56.50
2023-03-27T08:37:56.457Z,56.30
2023-03-27T08:40:59.989Z,54.90
2023-03-27T08:44:06.346Z,55.10
2023-03-27T08:47:18.010Z,55.20
2023-03-27T08:50:32.574Z,54.50
2023-03-27T08:53:43.028Z,54.10
2023-03-27T08:56:46.753Z,53.40
2023-03-27T08:59:51.087Z,53.30
2023-03-27T09:03:00.239Z,52.50
2023-03-27T09:06:09.033Z,52.50
2023-03-27T09:09:49.372Z,53.40
2023-03-27T09:13:04.975Z,53.70
2023-03-27T09:16:16.110Z,54.20
2023-03-27T09:19:29.583Z,53.70
2023-03-27T09:22:43.997Z,53.10
2023-03-27T09:25:52.593Z,52.70
2023-03-27T09:29:00.637Z,51.80
2023-03-27T09:32:04.546Z,51.50
2023-03-27T09:35:08.135Z,52.10
2023-03-27T09:38:26.119Z,52.70
2023-03-27T09:41:35.526Z,52.20
2023-03-27T09:44:41.601Z,51.90
2023-03-27T09:47:54.071Z,52.10
2023-03-27T09:50:57.225Z,50.60
2023-03-27T09:54:01.552Z,51.00
2023-03-27T09:57:11.562Z,51.70
2023-03-27T10:00:31.048Z,51.70
2023-03-27T10:03:48.851Z,50.10
2023-03-27T10:07:00.048Z,50.20
2023-03-27T10:10:08.746Z,50.20
2023-03-27T10:13:17.578Z,49.50
2023-03-27T10:16:22.649Z,49.40
2023-03-27T10:19:30.726Z,49.60
2023-03-27T10:22:37.654Z,48.50
2023-03-27T10:26:20.656Z,48.40
2023-03-27T10:29:26.845Z,48.70
2023-03-27T10:32:45.180Z,48.10
2023-03-27T10:35:50.281Z,47.80
2023-03-27T10:38:58.438Z,47.90
2023-03-27T10:42:07.740Z,47.70
2023-03-27T10:45:18.380Z,47.70
2023-03-27T10:48:35.712Z,46.80
2023-03-27T10:51:48.048Z,47.20
2023-03-27T10:55:03.689Z,46.50
2023-03-27T10:58:14.762Z,46.20
2023-03-27T11:01:26.240Z,45.80
2023-03-27T11:04:41.042Z,47.30
2023-03-27T11:07:49.321Z,47.70
2023-03-27T11:10:53.495Z,47.90
2023-03-27T11:14:02.472Z,46.50
2023-03-27T11:17:09.403Z,47.20
2023-03-27T11:20:26.249Z,46.80
2023-03-27T11:23:35.291Z,46.50
2023-03-27T11:26:55.643Z,46.80
2023-03-27T11:30:09.985Z,45.50
2023-03-27T11:33:40.863Z,43.60
2023-03-27T11:36:51.350Z,43.60
2023-03-27T11:39:59.527Z,43.70
2023-03-27T11:43:03.047Z,43.60
2023-03-27T11:46:15.770Z,43.60
2023-03-27T11:49:39.858Z,43.20
2023-03-27T11:52:53.260Z,43.10
2023-03-27T11:56:15.229Z,43.00
2023-03-27T11:59:32.631Z,43.90
2023-03-27T12:02:57.791Z,44.30
2023-03-27T12:06:14.153Z,44.20
2023-03-27T12:09:35.438Z,44.60
2023-03-27T12:13:17.494Z,44.80
2023-03-27T12:16:44.662Z,44.40
2023-03-27T12:20:28.905Z,44.60
2023-03-27T12:23:57.725Z,46.20
2023-03-27T12:27:28.730Z,46.20
2023-03-27T12:30:47.500Z,45.70
2023-03-27T12:34:01.101Z,46.30
2023-03-27T12:37:06.277Z,46.50
2023-03-27T12:40:27.995Z,46.40
2023-03-27T12:43:33.781Z,46.20
2023-03-27T12:46:39.697Z,45.30
2023-03-27T12:49:47.917Z,45.80
2023-03-27T12:52:53.179Z,45.20
2023-03-27T12:56:37.013Z,45.50
2023-03-27T12:59:53.715Z,45.60
2023-03-27T13:03:27.689Z,45.50
2023-03-27T13:06:42.609Z,44.90
2023-03-27T13:10:00.584Z,45.90
2023-03-27T13:13:37.949Z,46.40
2023-03-27T13:17:12.394Z,47.60
2023-03-27T13:20:24.214Z,49.70
2023-03-27T13:23:42.902Z,50.20
2023-03-27T13:26:58.505Z,50.80
2023-03-27T13:30:01.827Z,51.60
2023-03-27T13:33:17.323Z,51.50
2023-03-27T13:36:24.605Z,50.70
2023-03-27T13:39:40.792Z,50.30
2023-03-27T13:42:46.554Z,50.90
2023-03-27T13:45:52.164Z,52.00
2023-03-27T13:49:16.608Z,52.90
2023-03-27T13:52:47.461Z,53.10
2023-03-27T13:56:07.242Z,52.20
2023-03-27T13:59:32.840Z,51.70
2023-03-27T14:03:11.954Z,50.90
2023-03-27T14:07:02.471Z,50.30
2023-03-27T14:10:18.050Z,50.90
2023-03-27T14:13:32.365Z,51.90
2023-03-27T14:17:03.854Z,51.80
2023-03-27T14:20:23.043Z,52.00
2023-03-27T14:23:29.932Z,51.80
2023-03-27T14:26:33.766Z,52.40
2023-03-27T14:29:36.986Z,52.60
2023-03-27T14:32:40.125Z,52.20
2023-03-27T14:35:45.367Z,52.70
2023-03-27T14:38:51.214Z,52.80
2023-03-27T14:41:56.202Z,52.90
2023-03-27T14:45:20.708Z,52.00
2023-03-27T14:48:27.631Z,52.40
2023-03-27T14:51:37.248Z,52.20
2023-03-27T14:54:54.346Z,52.50
2023-03-27T14:58:02.214Z,52.30
2023-03-27T15:01:08.318Z,51.90
2023-03-27T15:04:15.036Z,51.50
2023-03-27T15:07:19.768Z,51.80
2023-03-27T15:10:26.369Z,51.70
2023-03-27T15:13:36.397Z,51.80
2023-03-27T15:16:40.025Z,51.60
2023-03-27T15:19:49.101Z,51.60
2023-03-27T15:22:59.952Z,51.50
2023-03-27T15:26:10.592Z,51.50
2023-03-27T15:29:22.615Z,51.30
2023-03-27T15:32:29.166Z,52.00
2023-03-27T15:35:35.089Z,51.80
2023-03-27T15:38:38.835Z,51.60
2023-03-27T15:41:44.570Z,51.80
2023-03-27T15:44:47.599Z,51.60
2023-03-27T15:48:01.195Z,51.80
2023-03-27T15:51:06.634Z,51.80
2023-03-27T15:54:26.224Z,51.60
2023-03-27T15:57:30.726Z,51.20
2023-03-27T16:00:33.838Z,51.50
2023-03-27T16:03:38.432Z,52.70
2023-03-27T16:06:45.710Z,53.00
2023-03-27T16:09:55.990Z,54.00
2023-03-27T16:13:02.777Z,54.10
2023-03-27T16:16:20.094Z,55.00
2023-03-27T16:19:23.204Z,55.20
2023-03-27T16:22:29.431Z,55.80
2023-03-27T16:25:33.845Z,57.30
2023-03-27T16:28:38.322Z,61.00
2023-03-27T16:31:46.217Z,62.80
2023-03-27T16:34:51.687Z,63.90
2023-03-27T16:37:55.112Z,64.00
2023-03-27T16:40:58.207Z,63.70
2023-03-27T16:44:02.768Z,63.20
2023-03-27T16:47:05.896Z,63.40
2023-03-27T16:50:13.610Z,63.30
2023-03-27T16:53:16.910Z,63.30
2023-03-27T16:56:20.322Z,63.20
2023-03-27T16:59:24.899Z,63.20
2023-03-27T17:02:28.880Z,63.30
2023-03-27T17:05:34.345Z,63.10
2023-03-27T17:08:38.150Z,62.50
2023-03-27T17:11:41.892Z,62.70
2023-03-27T17:14:48.713Z,62.20
2023-03-27T17:17:53.000Z,61.80
2023-03-27T17:20:56.042Z,61.90
2023-03-27T17:24:02.353Z,61.70
2023-03-27T17:27:05.602Z,62.30
2023-03-27T17:30:11.979Z,62.30
2023-03-27T17:33:15.039Z,62.40
2023-03-27T17:36:26.960Z,62.90
2023-03-27T17:39:33.945Z,63.20
2023-03-27T17:42:36.985Z,63.20
2023-03-27T17:45:45.613Z,62.90
2023-03-27T17:48:49.326Z,63.10
2023-03-27T17:51:52.436Z,63.20
2023-03-27T17:54:56.572Z,63.30
2023-03-27T17:58:08.797Z,63.40
2023-03-27T18:01:19.864Z,63.60
2023-03-27T18:04:22.939Z,63.70
2023-03-27T18:07:26.073Z,63.90
2023-03-27T18:10:29.141Z,63.80
2023-03-27T18:13:32.260Z,63.60
2023-03-27T18:16:36.757Z,63.70
2023-03-27T18:19:39.835Z,63.80
2023-03-27T18:22:43.109Z,64.00
2023-03-27T18:25:46.098Z,64.20
2023-03-27T18:28:49.072Z,64.10
2023-03-27T18:31:53.606Z,64.20
2023-03-27T18:34:56.711Z,63.40
2023-03-27T18:37:59.701Z,63.80
2023-03-27T18:41:02.720Z,63.50
2023-03-27T18:44:06.243Z,63.40
2023-03-27T18:47:10.952Z,62.70
2023-03-27T18:50:17.576Z,63.60
2023-03-27T18:53:20.900Z,64.40
2023-03-27T18:56:23.926Z,65.20
2023-03-27T18:59:26.951Z,65.80
2023-03-27T19:02:32.221Z,66.30
2023-03-27T19:05:35.841Z,66.90
2023-03-27T19:08:42.025Z,67.20
2023-03-27T19:11:45.097Z,67.30
2023-03-27T19:14:48.275Z,67.50
2023-03-27T19:17:52.654Z,67.50
2023-03-27T19:20:56.382Z,67.50
2023-03-27T19:23:59.547Z,67.30
2023-03-27T19:27:03.020Z,67.20
2023-03-27T19:30:08.195Z,66.90
2023-03-27T19:33:12.755Z,67.00
2023-03-27T19:36:15.901Z,67.00
2023-03-27T19:39:19.018Z,67.20
2023-03-27T19:42:22.028Z,67.30
2023-03-27T19:45:25.089Z,67.70
2023-03-27T19:48:30.769Z,67.70
2023-03-27T19:51:33.799Z,68.10
2023-03-27T19:54:37.174Z,68.30
2023-03-27T19:57:40.370Z,68.60
2023-03-27T20:00:44.677Z,69.00
2023-03-27T20:03:49.536Z,69.10
2023-03-27T20:06:55.033Z,69.20
2023-03-27T20:09:58.360Z,69.40
2023-03-27T20:13:01.675Z,69.30
2023-03-27T20:16:04.967Z,69.30
2023-03-27T20:19:09.582Z,69.50
2023-03-27T20:22:12.826Z,69.50
2023-03-27T20:25:16.063Z,69.50
2023-03-27T20:28:19.036Z,69.80
2023-03-27T20:31:23.433Z,70.20
2023-03-27T20:34:27.948Z,70.30
2023-03-27T20:37:31.471Z,70.30
2023-03-27T20:40:52.932Z,70.10
2023-03-27T20:43:58.766Z,69.90
2023-03-27T20:47:12.154Z,69.80
2023-03-27T20:50:17.929Z,69.70
2023-03-27T20:53:25.977Z,69.70
2023-03-27T20:56:28.948Z,69.90
2023-03-27T20:59:32.350Z,69.80
2023-03-27T21:02:36.292Z,69.80
2023-03-27T21:05:41.227Z,69.50
2023-03-27T21:08:44.330Z,69.40
2023-03-27T21:11:47.547Z,69.50
2023-03-27T21:14:50.821Z,69.20
2023-03-27T21:17:53.844Z,69.10
2023-03-27T21:20:58.288Z,69.30
2023-03-27T21:24:02.614Z,69.50
2023-03-27T21:27:05.762Z,69.60
2023-03-27T21:30:10.747Z,69.90
2023-03-27T21:33:15.729Z,70.20
2023-03-27T21:36:20.167Z,70.20
2023-03-27T21:39:23.381Z,70.30
2023-03-27T21:42:26.559Z,70.80
2023-03-27T21:45:29.618Z,71.40
2023-03-27T21:48:32.641Z,71.50
2023-03-27T21:51:37.336Z,71.90
2023-03-27T21:54:45.323Z,72.20
2023-03-27T21:57:56.212Z,72.20
2023-03-27T22:01:00.070Z,72.00
2023-03-27T22:04:03.255Z,72.00
2023-03-27T22:07:08.298Z,72.20
2023-03-27T22:10:12.227Z,72.20
2023-03-27T22:13:16.985Z,72.10
2023-03-27T22:16:20.450Z,72.20
2023-03-27T22:19:25.518Z,72.10
2023-03-27T22:22:31.035Z,72.20
2023-03-27T22:25:34.018Z,72.10
2023-03-27T22:28:37.157Z,72.30
2023-03-27T22:31:40.379Z,72.00
2023-03-27T22:34:43.471Z,72.10
2023-03-27T22:37:47.988Z,72.00
2023-03-27T22:40:51.128Z,71.90
2023-03-27T22:43:55.897Z,72.10
2023-03-27T22:46:59.935Z,72.40
2023-03-27T22:50:05.347Z,72.40
2023-03-27T22:53:09.706Z,71.90
2023-03-27T22:56:13.210Z,71.50
2023-03-27T22:59:17.290Z,71.10
2023-03-27T23:02:20.725Z,71.50
2023-03-27T23:05:23.792Z,71.40
2023-03-27T23:08:29.483Z,71.00
2023-03-27T23:11:32.648Z,70.90
2023-03-27T23:14:35.739Z,71.10
2023-03-27T23:17:39.340Z,70.50
2023-03-27T23:20:42.416Z,70.30
2023-03-27T23:23:46.990Z,70.20
2023-03-27T23:26:50.026Z,70.20
2023-03-27T23:29:53.148Z,70.00
2023-03-27T23:32:56.791Z,69.80
2023-03-27T23:36:03.188Z,69.60
2023-03-27T23:39:07.699Z,69.50
2023-03-27T23:42:10.757Z,69.20
2023-03-27T23:45:13.826Z,69.10
2023-03-27T23:48:17.152Z,69.10
2023-03-27T23:51:20.296Z,68.70
2023-03-27T23:54:25.095Z,68.60
2023-03-27T23:57:28.475Z,68.70
